createdAt,value
2022-11-30T00:01:15.825Z,101427.63
2022-11-30T00:03:42.666Z,101422.16
2022-11-30T00:06:12.394Z,101424.00
2022-11-30T00:08:38.813Z,101417.38
2022-11-30T00:11:26.156Z,101421.44
2022-11-30T00:13:53.238Z,101424.50
2022-11-30T00:16:20.032Z,101421.47
2022-11-30T00:18:47.064Z,101419.34
2022-11-30T00:21:14.765Z,101426.59
2022-11-30T00:23:43.707Z,101430.31
2022-11-30T00:26:16.673Z,101429.38
2022-11-30T00:28:45.729Z,101418.41
2022-11-30T00:31:15.786Z,101424.00
2022-11-30T00:33:47.967Z,101421.94
2022-11-30T00:36:16.741Z,101418.81
2022-11-30T00:38:43.739Z,101418.56
2022-11-30T00:41:10.872Z,101424.09
2022-11-30T00:43:37.748Z,101430.25
2022-11-30T00:46:04.769Z,101419.41
2022-11-30T00:48:36.851Z,101425.16
2022-11-30T00:51:04.241Z,101424.31
2022-11-30T00:53:31.628Z,101423.41
2022-11-30T00:55:58.228Z,101429.69
2022-11-30T00:58:24.913Z,101428.75
2022-11-30T01:00:51.726Z,101433.34
2022-11-30T01:03:18.301Z,101433.88
2022-11-30T01:05:44.880Z,101428.81
2022-11-30T01:08:12.359Z,101428.72
2022-11-30T01:10:41.226Z,101419.34
2022-11-30T01:13:09.139Z,101421.72
2022-11-30T01:15:38.397Z,101429.25
2022-11-30T01:18:05.491Z,101428.94
2022-11-30T01:20:32.375Z,101429.41
2022-11-30T01:22:58.983Z,101428.63
2022-11-30T01:25:25.588Z,101428.81
2022-11-30T01:27:52.346Z,101436.72
2022-11-30T01:30:19.114Z,101440.69
2022-11-30T01:32:45.651Z,101433.75
2022-11-30T01:35:12.202Z,101444.75
2022-11-30T01:37:38.794Z,101451.19
2022-11-30T01:40:06.093Z,101445.50
2022-11-30T01:42:33.119Z,101441.97
2022-11-30T01:45:02.451Z,101450.56
2022-11-30T01:47:39.291Z,101439.66
2022-11-30T01:50:23.063Z,101442.25
2022-11-30T01:52:56.443Z,101451.28
2022-11-30T01:55:39.924Z,101446.00
2022-11-30T01:58:11.578Z,101454.31
2022-11-30T02:00:41.353Z,101458.50
2022-11-30T02:03:32.684Z,101452.31
2022-11-30T02:06:00.524Z,101460.25
2022-11-30T02:08:28.285Z,101463.28
2022-11-30T02:11:00.016Z,101464.56
2022-11-30T02:13:35.193Z,101464.25
2022-11-30T02:16:17.527Z,101463.38
2022-11-30T02:18:53.264Z,101465.44
2022-11-30T02:21:25.955Z,101457.84
2022-11-30T02:24:13.932Z,101463.50
2022-11-30T02:26:59.317Z,101459.81
2022-11-30T02:29:40.657Z,101455.03
2022-11-30T02:32:14.324Z,101447.81
2022-11-30T02:34:44.355Z,101449.84
2022-11-30T02:37:13.682Z,101456.16
2022-11-30T02:39:40.343Z,101457.81
2022-11-30T02:42:12.703Z,101451.53
2022-11-30T02:44:42.217Z,101442.66
2022-11-30T02:47:34.460Z,101445.72
2022-11-30T02:50:25.560Z,101446.53
2022-11-30T02:52:52.779Z,101447.41
2022-11-30T02:55:20.401Z,101449.41
2022-11-30T02:57:47.340Z,101455.25
2022-11-30T03:00:15.047Z,101453.81
2022-11-30T03:02:42.045Z,101456.16
2022-11-30T03:05:09.420Z,101456.84
2022-11-30T03:07:36.215Z,101449.00
2022-11-30T03:10:03.082Z,101455.22
2022-11-30T03:12:29.988Z,101456.91
2022-11-30T03:14:56.581Z,101455.28
2022-11-30T03:17:23.960Z,101455.81
2022-11-30T03:19:50.635Z,101458.97
2022-11-30T03:22:17.231Z,101463.28
2022-11-30T03:24:43.979Z,101459.16
2022-11-30T03:27:12.290Z,101464.56
2022-11-30T03:29:39.335Z,101459.22
2022-11-30T03:32:06.038Z,101466.56
2022-11-30T03:34:32.882Z,101463.00
2022-11-30T03:36:59.861Z,101470.22
2022-11-30T03:39:27.015Z,101468.34
2022-11-30T03:41:53.773Z,101465.25
2022-11-30T03:44:20.471Z,101469.25
2022-11-30T03:46:47.132Z,101456.81
2022-11-30T03:49:13.792Z,101467.69
2022-11-30T03:51:40.368Z,101466.88
2022-11-30T03:54:06.923Z,101471.69
2022-11-30T03:56:33.549Z,101469.41
2022-11-30T03:59:00.118Z,101461.72
2022-11-30T04:01:28.060Z,101464.66
2022-11-30T04:03:54.766Z,101463.63
2022-11-30T04:06:22.257Z,101467.66
2022-11-30T04:08:49.582Z,101478.47
2022-11-30T04:11:16.557Z,101480.31
2022-11-30T04:13:43.714Z,101478.41
2022-11-30T04:16:10.922Z,101478.41
2022-11-30T04:18:38.504Z,101470.72
2022-11-30T04:21:06.684Z,101458.81
2022-11-30T04:23:39.110Z,101472.47
2022-11-30T04:26:07.682Z,101464.66
2022-11-30T04:28:34.705Z,101468.41
2022-11-30T04:31:02.722Z,101470.78
2022-11-30T04:33:29.729Z,101466.75
2022-11-30T04:35:59.712Z,101471.53
2022-11-30T04:38:27.153Z,101477.72
2022-11-30T04:40:54.441Z,101477.16
2022-11-30T04:43:21.426Z,101480.47
2022-11-30T04:45:49.111Z,101478.75
2022-11-30T04:48:16.570Z,101468.34
2022-11-30T04:50:43.639Z,101476.91
2022-11-30T04:53:10.708Z,101477.03
2022-11-30T04:55:38.357Z,101478.81
2022-11-30T04:58:06.407Z,101483.28
2022-11-30T05:00:33.673Z,101485.53
2022-11-30T05:03:00.280Z,101480.59
2022-11-30T05:05:26.885Z,101484.22
2022-11-30T05:07:58.868Z,101484.56
2022-11-30T05:10:26.774Z,101483.16
2022-11-30T05:12:53.475Z,101472.94
2022-11-30T05:15:20.472Z,101475.53
2022-11-30T05:17:47.172Z,101482.59
2022-11-30T05:20:14.215Z,101479.94
2022-11-30T05:22:41.017Z,101482.56
2022-11-30T05:25:08.386Z,101487.66
2022-11-30T05:27:35.543Z,101496.03
2022-11-30T05:30:03.684Z,101498.63
2022-11-30T05:32:30.340Z,101511.72
2022-11-30T05:34:57.466Z,101511.94
2022-11-30T05:37:24.437Z,101501.88
2022-11-30T05:39:51.134Z,101509.22
2022-11-30T05:42:17.961Z,101511.78
2022-11-30T05:44:45.450Z,101514.84
2022-11-30T05:47:12.551Z,101513.16
2022-11-30T05:49:39.264Z,101519.03
2022-11-30T05:52:05.869Z,101524.84
2022-11-30T05:54:33.957Z,101528.19
2022-11-30T05:57:00.618Z,101527.13
2022-11-30T05:59:27.317Z,101530.00
2022-11-30T06:01:54.895Z,101521.41
2022-11-30T06:04:22.506Z,101525.25
2022-11-30T06:06:49.571Z,101523.97
2022-11-30T06:09:16.492Z,101529.63
2022-11-30T06:11:43.685Z,101526.47
2022-11-30T06:14:10.444Z,101521.44
2022-11-30T06:16:40.554Z,101526.72
2022-11-30T06:19:07.396Z,101534.25
2022-11-30T06:21:34.340Z,101524.50
2022-11-30T06:24:01.497Z,101531.81
2022-11-30T06:26:29.508Z,101527.78
2022-11-30T06:28:56.321Z,101525.75
2022-11-30T06:31:22.987Z,101528.81
2022-11-30T06:33:49.797Z,101533.84
2022-11-30T06:36:21.725Z,101533.03
2022-11-30T06:38:48.362Z,101535.75
2022-11-30T06:41:15.035Z,101538.06
2022-11-30T06:43:41.694Z,101536.53
2022-11-30T06:46:08.759Z,101532.28
2022-11-30T06:48:35.869Z,101533.03
2022-11-30T06:51:06.009Z,101535.53
2022-11-30T06:53:32.758Z,101538.66
2022-11-30T06:55:59.357Z,101548.84
2022-11-30T06:58:25.957Z,101549.38
2022-11-30T07:00:52.598Z,101546.66
2022-11-30T07:03:19.244Z,101547.94
2022-11-30T07:05:46.572Z,101550.25
2022-11-30T07:08:17.385Z,101548.66
2022-11-30T07:10:46.373Z,101549.69
2022-11-30T07:13:15.313Z,101559.28
2022-11-30T07:15:42.721Z,101554.50
2022-11-30T07:18:10.691Z,101549.25
2022-11-30T07:20:38.375Z,101565.91
2022-11-30T07:23:24.217Z,101565.09
2022-11-30T07:26:07.532Z,101571.72
2022-11-30T07:28:36.437Z,101565.59
2022-11-30T07:31:21.498Z,101582.25
2022-11-30T07:33:49.674Z,101579.41
2022-11-30T07:36:18.179Z,101583.00
2022-11-30T07:38:45.748Z,101582.56
2022-11-30T07:41:12.705Z,101587.13
2022-11-30T07:43:40.051Z,101587.44
2022-11-30T07:46:07.170Z,101594.38
2022-11-30T07:48:35.298Z,101590.47
2022-11-30T07:51:07.837Z,101589.25
2022-11-30T07:53:34.472Z,101593.22
2022-11-30T07:56:03.303Z,101581.28
2022-11-30T07:58:30.923Z,101589.63
2022-11-30T08:01:02.754Z,101599.06
2022-11-30T08:03:35.148Z,101589.91
2022-11-30T08:06:07.097Z,101597.22
2022-11-30T08:08:36.388Z,101599.28
2022-11-30T08:11:04.941Z,101597.06
2022-11-30T08:13:31.551Z,101604.22
2022-11-30T08:16:12.752Z,101598.66
2022-11-30T08:18:40.589Z,101600.16
2022-11-30T08:21:09.458Z,101593.38
2022-11-30T08:23:41.291Z,101607.75
2022-11-30T08:26:09.104Z,101608.63
2022-11-30T08:28:38.521Z,101605.94
2022-11-30T08:31:08.959Z,101607.44
2022-11-30T08:33:36.692Z,101606.16
2022-11-30T08:36:11.885Z,101613.09
2022-11-30T08:38:39.608Z,101615.81
2022-11-30T08:41:07.214Z,101618.88
2022-11-30T08:43:34.051Z,101615.47
2022-11-30T08:46:11.405Z,101618.53
2022-11-30T08:48:48.488Z,101622.22
2022-11-30T08:51:17.529Z,101625.56
2022-11-30T08:53:45.205Z,101630.59
2022-11-30T08:56:15.490Z,101626.81
2022-11-30T08:58:42.731Z,101637.97
2022-11-30T09:01:14.496Z,101635.38
2022-11-30T09:03:42.453Z,101640.91
2022-11-30T09:06:16.840Z,101636.41
2022-11-30T09:08:45.917Z,101641.59
2022-11-30T09:11:20.691Z,101643.88
2022-11-30T09:13:48.100Z,101630.94
2022-11-30T09:16:19.646Z,101637.53
2022-11-30T09:18:47.810Z,101640.72
2022-11-30T09:21:17.617Z,101644.44
2022-11-30T09:23:46.024Z,101646.53
2022-11-30T09:26:14.969Z,101648.66
2022-11-30T09:28:41.897Z,101647.63
2022-11-30T09:31:12.659Z,101655.66
2022-11-30T09:33:39.441Z,101658.25
2022-11-30T09:36:08.664Z,101658.19
2022-11-30T09:38:36.357Z,101650.56
2022-11-30T09:41:38.796Z,101649.03
2022-11-30T09:44:39.487Z,101655.47
2022-11-30T09:47:31.894Z,101651.78
2022-11-30T09:50:03.840Z,101651.78
2022-11-30T09:52:35.865Z,101653.44
2022-11-30T09:55:08.600Z,101654.25
2022-11-30T09:57:41.399Z,101653.69
2022-11-30T10:00:22.850Z,101652.81
2022-11-30T10:02:56.227Z,101653.78
2022-11-30T10:05:39.554Z,101646.88
2022-11-30T10:08:30.610Z,101655.84
2022-11-30T10:11:23.112Z,101662.75
2022-11-30T10:14:17.512Z,101666.47
2022-11-30T10:17:21.266Z,101672.13
2022-11-30T10:20:14.869Z,101671.22
2022-11-30T10:22:56.806Z,101665.34
2022-11-30T10:25:40.077Z,101662.03
2022-11-30T10:28:24.361Z,101665.97
2022-11-30T10:30:54.077Z,101663.59
2022-11-30T10:33:35.348Z,101657.38
2022-11-30T10:36:25.181Z,101657.69
2022-11-30T10:38:59.225Z,101660.66
2022-11-30T10:41:43.458Z,101657.25
2022-11-30T10:44:44.101Z,101658.00
2022-11-30T10:47:19.749Z,101657.06
2022-11-30T10:49:50.226Z,101651.75
2022-11-30T10:52:22.450Z,101652.69
2022-11-30T10:54:52.996Z,101651.81
2022-11-30T10:57:22.016Z,101653.09
2022-11-30T11:00:00.579Z,101651.38
2022-11-30T11:02:37.865Z,101649.63
2022-11-30T11:05:09.296Z,101657.53
2022-11-30T11:08:01.231Z,101642.47
2022-11-30T11:10:37.283Z,101645.31
2022-11-30T11:13:05.201Z,101645.25
2022-11-30T11:15:34.241Z,101642.16
2022-11-30T11:18:21.434Z,101635.41
2022-11-30T11:20:51.780Z,101642.88
2022-11-30T11:23:35.469Z,101643.28
2022-11-30T11:26:02.791Z,101642.97
2022-11-30T11:28:29.578Z,101641.53
2022-11-30T11:30:57.594Z,101653.91
2022-11-30T11:33:29.531Z,101658.50
2022-11-30T11:36:15.128Z,101653.59
2022-11-30T11:38:44.838Z,101657.66
2022-11-30T11:41:11.417Z,101650.13
2022-11-30T11:44:21.300Z,101654.44
2022-11-30T11:47:07.717Z,101647.91
2022-11-30T11:49:38.996Z,101652.78
2022-11-30T11:52:15.486Z,101656.72
2022-11-30T11:55:05.560Z,101652.78
2022-11-30T11:57:48.520Z,101643.91
2022-11-30T12:00:17.464Z,101651.72
2022-11-30T12:02:59.501Z,101654.03
2022-11-30T12:05:42.936Z,101662.75
2022-11-30T12:08:28.398Z,101666.97
2022-11-30T12:11:00.382Z,101662.75
2022-11-30T12:13:34.871Z,101658.13
2022-11-30T12:16:34.945Z,101665.25
2022-11-30T12:19:17.155Z,101669.41
2022-11-30T12:22:02.088Z,101665.59
2022-11-30T12:25:07.533Z,101664.88
2022-11-30T12:27:58.912Z,101673.69
2022-11-30T12:30:44.265Z,101676.91
2022-11-30T12:33:26.003Z,101681.53
2022-11-30T12:36:20.024Z,101680.78
2022-11-30T12:39:01.799Z,101682.41
2022-11-30T12:41:37.318Z,101678.03
2022-11-30T12:44:28.539Z,101682.91
2022-11-30T12:47:07.753Z,101674.25
2022-11-30T12:49:40.602Z,101677.16
2022-11-30T12:52:40.630Z,101673.53
2022-11-30T12:55:37.925Z,101673.97
2022-11-30T12:58:22.142Z,101681.09
2022-11-30T13:01:11.130Z,101677.78
2022-11-30T13:04:19.579Z,101691.63
2022-11-30T13:07:11.890Z,101693.53
2022-11-30T13:09:44.576Z,101692.22
2022-11-30T13:12:16.594Z,101692.56
2022-11-30T13:14:44.074Z,101688.41
2022-11-30T13:17:18.525Z,101692.41
2022-11-30T13:19:59.861Z,101687.59
2022-11-30T13:22:48.401Z,101692.69
2022-11-30T13:28:26.775Z,101698.13
2022-11-30T13:31:13.565Z,101698.22
2022-11-30T13:33:50.418Z,101702.22
2022-11-30T13:36:44.752Z,101698.94
2022-11-30T13:39:14.697Z,101706.78
2022-11-30T13:41:43.763Z,101701.78
2022-11-30T13:44:37.197Z,101705.69
2022-11-30T13:47:26.141Z,101694.28
2022-11-30T13:50:05.372Z,101698.56
2022-11-30T13:53:00.532Z,101704.06
2022-11-30T13:55:36.549Z,101697.00
2022-11-30T13:58:09.341Z,101701.06
2022-11-30T14:00:36.031Z,101709.94
2022-11-30T14:03:22.425Z,101708.72
2022-11-30T14:05:59.480Z,101702.75
2022-11-30T14:08:36.016Z,101707.34
2022-11-30T14:11:38.957Z,101710.50
2022-11-30T14:14:44.936Z,101719.88
2022-11-30T14:17:20.019Z,101709.69
2022-11-30T14:19:50.384Z,101712.44
2022-11-30T14:22:17.796Z,101714.78
2022-11-30T14:24:47.266Z,101716.31
2022-11-30T14:27:22.810Z,101710.94
2022-11-30T14:29:53.405Z,101710.84
2022-11-30T14:32:30.281Z,101710.66
2022-11-30T14:35:12.154Z,101722.53
2022-11-30T14:37:52.502Z,101715.97
2022-11-30T14:40:21.925Z,101721.66
2022-11-30T14:42:56.569Z,101718.56
2022-11-30T14:45:27.608Z,101719.44
2022-11-30T14:48:06.392Z,101721.00
2022-11-30T14:50:33.952Z,101725.00
2022-11-30T14:53:14.355Z,101728.81
2022-11-30T14:55:52.731Z,101731.63
2022-11-30T14:58:46.895Z,101738.44
2022-11-30T15:01:25.961Z,101731.34
2022-11-30T15:03:56.689Z,101737.97
2022-11-30T15:06:29.711Z,101741.50
2022-11-30T15:08:59.254Z,101735.16
2022-11-30T15:11:26.360Z,101737.09
2022-11-30T15:13:56.330Z,101740.16
2022-11-30T15:16:30.386Z,101740.00
2022-11-30T15:18:59.190Z,101734.34
2022-11-30T15:21:31.053Z,101738.53
2022-11-30T15:24:00.776Z,101736.09
2022-11-30T15:26:33.801Z,101734.50
2022-11-30T15:29:08.021Z,101728.66
2022-11-30T15:31:39.324Z,101734.00
2022-11-30T15:34:07.501Z,101741.22
2022-11-30T15:36:38.470Z,101732.44
2022-11-30T15:39:08.075Z,101748.09
2022-11-30T15:41:35.939Z,101749.03
2022-11-30T15:44:02.820Z,101743.88
2022-11-30T15:46:34.249Z,101751.47
2022-11-30T15:49:25.222Z,101752.13
2022-11-30T15:52:04.719Z,101760.84
2022-11-30T15:54:55.315Z,101754.03
2022-11-30T15:57:26.096Z,101766.88
2022-11-30T16:00:19.782Z,101762.41
2022-11-30T16:02:46.810Z,101765.72
2022-11-30T16:05:14.722Z,101765.81
2022-11-30T16:07:59.414Z,101763.66
2022-11-30T16:10:29.610Z,101775.03
2022-11-30T16:12:56.574Z,101779.63
2022-11-30T16:15:36.093Z,101776.34
2022-11-30T16:18:22.258Z,101773.41
2022-11-30T16:20:52.308Z,101769.25
2022-11-30T16:23:20.077Z,101776.66
2022-11-30T16:25:48.203Z,101770.88
2022-11-30T16:28:17.716Z,101773.09
2022-11-30T16:30:47.066Z,101776.03
2022-11-30T16:33:22.228Z,101772.00
2022-11-30T16:35:57.676Z,101770.59
2022-11-30T16:38:25.545Z,101768.72
2022-11-30T16:40:56.495Z,101769.00
2022-11-30T16:43:26.266Z,101769.78
2022-11-30T16:45:53.257Z,101783.88
2022-11-30T16:48:20.061Z,101778.78
2022-11-30T16:50:47.004Z,101780.19
2022-11-30T16:53:17.610Z,101785.91
2022-11-30T16:55:44.492Z,101786.66
2022-11-30T16:58:11.220Z,101787.84
2022-11-30T17:00:40.252Z,101788.38
2022-11-30T17:03:21.204Z,101786.25
2022-11-30T17:05:48.196Z,101785.34
2022-11-30T17:08:14.789Z,101796.63
2022-11-30T17:10:42.337Z,101796.22
2022-11-30T17:13:14.320Z,101795.41
2022-11-30T17:15:41.425Z,101791.72
2022-11-30T17:18:08.150Z,101797.81
2022-11-30T17:20:36.818Z,101792.00
2022-11-30T17:23:05.025Z,101795.69
2022-11-30T17:25:32.074Z,101798.78
2022-11-30T17:27:59.959Z,101804.13
2022-11-30T17:30:27.885Z,101806.34
2022-11-30T17:32:54.978Z,101804.50
2022-11-30T17:35:21.615Z,101800.69
2022-11-30T17:37:48.319Z,101812.22
2022-11-30T17:40:17.982Z,101811.22
2022-11-30T17:42:44.653Z,101817.13
2022-11-30T17:45:11.611Z,101819.38
2022-11-30T17:47:38.706Z,101818.28
2022-11-30T17:50:07.369Z,101813.25
2022-11-30T17:52:35.102Z,101822.91
2022-11-30T17:55:01.724Z,101828.19
2022-11-30T17:57:28.376Z,101825.06
2022-11-30T17:59:55.218Z,101827.81
2022-11-30T18:02:21.944Z,101830.69
2022-11-30T18:04:48.781Z,101827.50
2022-11-30T18:07:15.669Z,101837.41
2022-11-30T18:09:43.681Z,101828.31
2022-11-30T18:12:10.714Z,101834.53
2022-11-30T18:14:39.383Z,101832.91
2022-11-30T18:17:06.797Z,101835.25
2022-11-30T18:19:33.473Z,101842.13
2022-11-30T18:22:00.661Z,101840.72
2022-11-30T18:24:27.245Z,101846.50
2022-11-30T18:26:53.824Z,101838.94
2022-11-30T18:29:20.616Z,101851.06
2022-11-30T18:31:48.489Z,101856.72
2022-11-30T18:34:15.337Z,101852.75
2022-11-30T18:36:42.784Z,101855.63
2022-11-30T18:39:09.646Z,101852.69
2022-11-30T18:41:40.013Z,101855.34
2022-11-30T18:44:06.819Z,101855.50
2022-11-30T18:46:33.919Z,101861.13
2022-11-30T18:49:01.752Z,101857.53
2022-11-30T18:51:30.379Z,101859.94
2022-11-30T18:53:59.824Z,101869.97
2022-11-30T18:56:30.267Z,101866.75
2022-11-30T18:58:59.307Z,101864.34
2022-11-30T19:01:26.860Z,101869.97
2022-11-30T19:04:05.623Z,101861.50
2022-11-30T19:06:33.170Z,101857.69
2022-11-30T19:09:02.809Z,101866.38
2022-11-30T19:11:29.352Z,101865.97
2022-11-30T19:13:57.717Z,101869.09
2022-11-30T19:16:29.123Z,101872.34
2022-11-30T19:18:59.092Z,101871.22
2022-11-30T19:21:27.030Z,101862.88
2022-11-30T19:23:54.056Z,101873.38
2022-11-30T19:26:20.654Z,101873.19
2022-11-30T19:28:47.292Z,101872.47
2022-11-30T19:31:16.915Z,101874.69
2022-11-30T19:33:45.071Z,101878.31
2022-11-30T19:36:23.547Z,101879.09
2022-11-30T19:38:51.609Z,101877.97
2022-11-30T19:41:20.161Z,101877.97
2022-11-30T19:43:53.966Z,101875.22
2022-11-30T19:46:22.984Z,101877.81
2022-11-30T19:48:54.751Z,101869.59
2022-11-30T19:51:21.639Z,101881.38
2022-11-30T19:53:48.338Z,101887.41
2022-11-30T19:56:17.184Z,101885.56
2022-11-30T19:58:45.481Z,101888.66
2022-11-30T20:01:22.865Z,101884.03
2022-11-30T20:03:51.150Z,101896.69
2022-11-30T20:06:19.076Z,101894.81
2022-11-30T20:08:46.094Z,101902.69
2022-11-30T20:11:15.416Z,101905.56
2022-11-30T20:13:44.033Z,101901.75
2022-11-30T20:16:16.937Z,101900.84
2022-11-30T20:18:46.524Z,101912.00
2022-11-30T20:21:25.069Z,101905.56
2022-11-30T20:23:53.723Z,101902.94
2022-11-30T20:26:26.274Z,101907.94
2022-11-30T20:28:54.135Z,101903.97
2022-11-30T20:31:22.705Z,101904.09
2022-11-30T20:33:50.229Z,101905.41
2022-11-30T20:36:18.204Z,101904.25
2022-11-30T20:38:44.904Z,101909.88
2022-11-30T20:41:14.013Z,101906.03
2022-11-30T20:43:41.580Z,101907.78
2022-11-30T20:46:19.664Z,101908.09
2022-11-30T20:48:47.542Z,101909.13
2022-11-30T20:51:33.303Z,101904.84
2022-11-30T20:54:02.194Z,101902.56
2022-11-30T20:56:28.875Z,101904.72
2022-11-30T20:58:55.625Z,101910.00
2022-11-30T21:01:23.270Z,101909.34
2022-11-30T21:03:50.418Z,101905.16
2022-11-30T21:06:17.384Z,101908.09
2022-11-30T21:08:44.547Z,101913.31
2022-11-30T21:11:14.134Z,101910.97
2022-11-30T21:13:42.893Z,101912.00
2022-11-30T21:16:10.286Z,101916.53
2022-11-30T21:18:38.645Z,101914.31
2022-11-30T21:21:07.812Z,101924.94
2022-11-30T21:23:34.599Z,101926.41
2022-11-30T21:26:22.970Z,101921.09
2022-11-30T21:28:53.210Z,101922.81
2022-11-30T21:31:21.506Z,101917.44
2022-11-30T21:33:53.294Z,101918.94
2022-11-30T21:36:21.882Z,101915.47
2022-11-30T21:39:02.872Z,101917.09
2022-11-30T21:41:31.605Z,101915.47
2022-11-30T21:43:58.793Z,101913.16
2022-11-30T21:46:26.305Z,101918.09
2022-11-30T21:48:52.960Z,101917.56
2022-11-30T21:51:23.202Z,101918.34
2022-11-30T21:53:55.150Z,101912.41
2022-11-30T21:56:25.062Z,101913.53
2022-11-30T21:58:52.049Z,101910.31
2022-11-30T22:01:21.704Z,101916.56
2022-11-30T22:03:48.884Z,101917.53
2022-11-30T22:06:17.855Z,101917.75
2022-11-30T22:08:45.342Z,101916.69
2022-11-30T22:11:22.729Z,101916.31
2022-11-30T22:13:50.973Z,101914.22
2022-11-30T22:16:18.637Z,101920.94
2022-11-30T22:18:46.616Z,101912.81
2022-11-30T22:21:15.815Z,101914.59
2022-11-30T22:23:45.327Z,101925.13
2022-11-30T22:26:19.170Z,101912.69
2022-11-30T22:29:00.299Z,101920.19
2022-11-30T22:31:29.755Z,101917.38
2022-11-30T22:33:57.076Z,101921.16
2022-11-30T22:36:26.478Z,101921.41
2022-11-30T22:38:58.718Z,101922.06
2022-11-30T22:41:26.443Z,101922.34
2022-11-30T22:43:54.760Z,101924.50
2022-11-30T22:46:24.069Z,101919.59
2022-11-30T22:48:51.197Z,101918.75
2022-11-30T22:51:19.388Z,101920.44
2022-11-30T22:53:49.485Z,101921.31
2022-11-30T22:56:19.211Z,101925.84
2022-11-30T22:58:47.370Z,101917.22
2022-11-30T23:01:23.177Z,101913.16
2022-11-30T23:03:51.555Z,101916.97
2022-11-30T23:06:19.712Z,101914.25
2022-11-30T23:08:47.838Z,101910.91
2022-11-30T23:11:20.358Z,101917.16
2022-11-30T23:13:47.369Z,101919.91
2022-11-30T23:16:15.234Z,101925.38
2022-11-30T23:18:44.442Z,101924.19
2022-11-30T23:21:16.858Z,101916.78
2022-11-30T23:23:44.159Z,101918.50
2022-11-30T23:26:13.895Z,101911.56
2022-11-30T23:28:42.049Z,101917.09
2022-11-30T23:31:34.219Z,101917.78
2022-11-30T23:34:01.343Z,101920.84
2022-11-30T23:36:27.976Z,101918.72
2022-11-30T23:38:59.951Z,101924.53
2022-11-30T23:41:27.380Z,101930.09
2022-11-30T23:43:54.528Z,101922.19
2022-11-30T23:46:21.911Z,101927.88
2022-11-30T23:48:49.025Z,101919.69
2022-11-30T23:51:15.916Z,101919.69
2022-11-30T23:53:42.553Z,101916.34
2022-11-30T23:56:13.179Z,101911.59
2022-11-30T23:58:39.890Z,101917.84
